createdAt,value
2019-03-26T00:00:46.535Z,16.67
2019-03-26T00:03:14.784Z,13.83
2019-03-26T00:05:43.012Z,20.35
2019-03-26T00:08:11.240Z,11.75
2019-03-26T00:10:39.482Z,14.23
2019-03-26T00:13:07.788Z,17.30
2019-03-26T00:15:36.033Z,13.93
2019-03-26T00:18:04.261Z,13.80
2019-03-26T00:20:32.505Z,15.75
2019-03-26T00:23:00.742Z,16.67
2019-03-26T00:25:28.974Z,13.08
2019-03-26T00:27:57.195Z,14.28
2019-03-26T00:30:25.439Z,13.93
2019-03-26T00:32:53.682Z,13.08
2019-03-26T00:35:21.904Z,15.40
2019-03-26T00:37:50.151Z,14.85
2019-03-26T00:40:18.753Z,15.95
2019-03-26T00:42:47.019Z,14.43
2019-03-26T00:45:15.229Z,15.32
2019-03-26T00:47:43.457Z,17.52
2019-03-26T00:50:11.710Z,13.08
2019-03-26T00:52:39.939Z,13.62
2019-03-26T00:55:21.592Z,14.78
2019-03-26T00:57:38.197Z,13.38
2019-03-26T01:00:07.766Z,14.18
2019-03-26T01:02:35.997Z,13.95
2019-03-26T01:05:06.287Z,12.95
2019-03-26T01:07:34.518Z,14.63
2019-03-26T01:10:03.116Z,14.78
2019-03-26T01:12:31.421Z,17.55
2019-03-26T01:14:59.674Z,16.90
2019-03-26T01:17:27.888Z,15.50
2019-03-26T01:19:56.136Z,16.55
2019-03-26T01:22:24.406Z,14.25
2019-03-26T01:24:52.647Z,13.75
2019-03-26T01:27:20.864Z,17.80
2019-03-26T01:29:49.127Z,13.45
2019-03-26T01:32:17.348Z,15.25
2019-03-26T01:34:46.435Z,15.85
2019-03-26T01:37:14.812Z,17.95
2019-03-26T01:39:43.029Z,16.10
2019-03-26T01:42:11.280Z,23.73
2019-03-26T01:44:39.552Z,20.02
2019-03-26T01:47:07.779Z,15.32
2019-03-26T01:49:36.002Z,14.45
2019-03-26T01:52:04.258Z,16.50
2019-03-26T01:54:32.512Z,19.60
2019-03-26T01:57:00.717Z,18.37
2019-03-26T01:59:28.960Z,18.37
2019-03-26T02:01:57.214Z,16.97
2019-03-26T02:04:25.473Z,19.65
2019-03-26T02:06:53.696Z,18.20
2019-03-26T02:09:21.942Z,17.73
2019-03-26T02:11:50.181Z,17.00
2019-03-26T02:14:18.412Z,18.82
2019-03-26T02:16:46.670Z,18.37
2019-03-26T02:19:14.896Z,24.37
2019-03-26T02:21:43.131Z,21.80
2019-03-26T02:24:11.364Z,19.50
2019-03-26T02:26:39.622Z,18.82
2019-03-26T02:29:07.931Z,21.73
2019-03-26T02:31:36.177Z,21.45
2019-03-26T02:34:04.426Z,19.25
2019-03-26T02:36:32.673Z,18.23
2019-03-26T02:39:00.928Z,23.20
2019-03-26T02:41:29.153Z,20.05
2019-03-26T02:43:57.406Z,23.55
2019-03-26T02:46:25.644Z,20.50
2019-03-26T02:48:53.893Z,22.55
2019-03-26T02:51:22.142Z,20.50
2019-03-26T02:53:50.399Z,25.10
2019-03-26T02:56:18.635Z,22.52
2019-03-26T02:58:46.865Z,22.20
2019-03-26T03:01:15.199Z,21.15
2019-03-26T03:03:43.518Z,20.30
2019-03-26T03:06:12.219Z,20.25
2019-03-26T03:08:40.710Z,22.60
2019-03-26T03:11:08.963Z,21.82
2019-03-26T03:13:37.188Z,22.90
2019-03-26T03:16:05.426Z,19.77
2019-03-26T03:18:33.675Z,20.62
2019-03-26T03:21:01.921Z,23.12
2019-03-26T03:23:30.153Z,20.72
2019-03-26T03:25:58.405Z,24.27
2019-03-26T03:28:26.631Z,23.38
2019-03-26T03:30:54.873Z,19.62
2019-03-26T03:33:23.188Z,21.15
2019-03-26T03:35:53.060Z,23.02
2019-03-26T03:38:21.591Z,21.02
2019-03-26T03:40:49.832Z,19.50
2019-03-26T03:43:18.057Z,21.35
2019-03-26T03:45:46.303Z,19.20
2019-03-26T03:48:14.602Z,21.93
2019-03-26T03:50:42.853Z,21.85
2019-03-26T03:53:11.082Z,18.70
2019-03-26T03:55:39.334Z,17.75
2019-03-26T03:58:07.585Z,19.92
2019-03-26T04:00:37.460Z,18.95
2019-03-26T04:03:07.323Z,20.70
2019-03-26T04:05:35.702Z,22.37
2019-03-26T04:08:03.929Z,22.85
2019-03-26T04:10:32.192Z,23.27
2019-03-26T04:13:00.425Z,23.83
2019-03-26T04:15:28.686Z,23.30
2019-03-26T04:17:56.935Z,19.70
2019-03-26T04:20:25.170Z,22.93
2019-03-26T04:22:53.415Z,23.73
2019-03-26T04:25:21.661Z,19.40
2019-03-26T04:27:49.882Z,20.50
2019-03-26T04:30:28.893Z,18.35
2019-03-26T04:32:57.120Z,25.57
2019-03-26T04:35:25.424Z,21.75
2019-03-26T04:37:53.678Z,20.48
2019-03-26T04:40:21.924Z,22.90
2019-03-26T04:42:50.188Z,23.57
2019-03-26T04:45:18.411Z,23.10
2019-03-26T04:47:46.659Z,25.23
2019-03-26T04:50:14.883Z,31.15
2019-03-26T04:52:43.124Z,23.87
2019-03-26T04:55:11.366Z,24.52
2019-03-26T04:57:39.616Z,22.87
2019-03-26T05:00:07.859Z,29.07
2019-03-26T05:02:36.119Z,28.30
2019-03-26T05:05:05.686Z,25.12
2019-03-26T05:07:33.990Z,20.43
2019-03-26T05:10:02.269Z,21.25
2019-03-26T05:12:30.490Z,21.12
2019-03-26T05:14:58.749Z,22.50
2019-03-26T05:17:26.977Z,23.30
2019-03-26T05:19:55.233Z,21.75
2019-03-26T05:22:24.550Z,21.48
2019-03-26T05:24:52.896Z,21.33
2019-03-26T05:27:21.144Z,21.70
2019-03-26T05:29:49.368Z,21.00
2019-03-26T05:32:17.630Z,24.45
2019-03-26T05:34:45.860Z,22.42
2019-03-26T05:37:14.125Z,23.18
2019-03-26T05:39:42.347Z,25.23
2019-03-26T05:42:10.566Z,23.70
2019-03-26T05:44:38.807Z,27.67
2019-03-26T05:47:07.028Z,21.35
2019-03-26T05:49:35.262Z,27.27
2019-03-26T05:52:03.504Z,23.65
2019-03-26T05:54:31.752Z,25.70
2019-03-26T05:56:59.994Z,26.75
2019-03-26T05:59:28.232Z,28.17
2019-03-26T06:01:56.479Z,26.48
2019-03-26T06:04:24.709Z,29.70
2019-03-26T06:07:04.150Z,33.38
2019-03-26T06:09:22.909Z,30.65
2019-03-26T06:11:51.151Z,37.55
2019-03-26T06:14:19.417Z,34.63
2019-03-26T06:16:47.671Z,29.32
2019-03-26T06:19:15.921Z,34.27
2019-03-26T06:21:44.154Z,29.80
2019-03-26T06:24:12.396Z,28.80
2019-03-26T06:26:40.619Z,33.63
2019-03-26T06:29:08.876Z,28.27
2019-03-26T06:31:37.100Z,30.95
2019-03-26T06:34:05.343Z,31.05
2019-03-26T06:36:33.575Z,26.80
2019-03-26T06:39:01.830Z,33.40
2019-03-26T06:41:30.066Z,31.07
2019-03-26T06:43:58.308Z,33.00
2019-03-26T06:46:26.541Z,29.30
2019-03-26T06:48:54.782Z,29.12
2019-03-26T06:51:23.022Z,31.87
2019-03-26T06:53:51.254Z,30.95
2019-03-26T06:56:19.490Z,28.60
2019-03-26T06:58:47.736Z,30.70
2019-03-26T07:01:15.971Z,26.93
2019-03-26T07:03:44.215Z,29.07
2019-03-26T07:06:12.464Z,33.00
2019-03-26T07:08:40.683Z,26.70
2019-03-26T07:11:09.021Z,31.62
2019-03-26T07:13:37.349Z,31.02
2019-03-26T07:16:05.593Z,29.72
2019-03-26T07:18:33.844Z,31.50
2019-03-26T07:21:02.077Z,31.37
2019-03-26T07:23:30.319Z,31.40
2019-03-26T07:25:58.564Z,28.65
2019-03-26T07:28:26.800Z,32.60
2019-03-26T07:30:55.035Z,29.12
2019-03-26T07:33:23.274Z,27.17
2019-03-26T07:35:51.504Z,28.07
2019-03-26T07:38:19.779Z,29.15
2019-03-26T07:40:48.009Z,30.85
2019-03-26T07:43:16.243Z,30.92
2019-03-26T07:45:44.500Z,28.30
2019-03-26T07:48:12.724Z,24.47
2019-03-26T07:50:40.962Z,25.30
2019-03-26T07:53:09.207Z,26.12
2019-03-26T07:55:37.440Z,35.48
2019-03-26T07:58:05.680Z,26.10
2019-03-26T08:00:35.247Z,29.20
2019-03-26T08:03:03.490Z,26.05
2019-03-26T08:05:31.724Z,25.35
2019-03-26T08:08:00.025Z,27.82
2019-03-26T08:10:28.347Z,23.50
2019-03-26T08:12:56.608Z,25.65
2019-03-26T08:15:24.922Z,26.05
2019-03-26T08:17:53.143Z,23.92
2019-03-26T08:20:21.372Z,25.72
2019-03-26T08:22:49.620Z,26.25
2019-03-26T08:25:17.902Z,20.72
2019-03-26T08:27:46.192Z,29.15
2019-03-26T08:30:14.416Z,24.72
2019-03-26T08:32:42.684Z,22.87
2019-03-26T08:35:10.922Z,22.95
2019-03-26T08:37:39.168Z,20.12
2019-03-26T08:40:09.018Z,22.42
2019-03-26T08:42:37.269Z,21.93
2019-03-26T08:45:07.546Z,19.98
2019-03-26T08:47:35.771Z,17.67
2019-03-26T08:50:07.610Z,18.05
2019-03-26T08:52:35.859Z,20.17
2019-03-26T08:55:06.314Z,17.30
2019-03-26T08:57:34.582Z,20.77
2019-03-26T09:00:02.808Z,19.50
2019-03-26T09:02:31.041Z,20.17
2019-03-26T09:04:59.294Z,18.73
2019-03-26T09:07:27.529Z,21.40
2019-03-26T09:09:55.786Z,16.82
2019-03-26T09:12:24.008Z,18.50
2019-03-26T09:14:52.438Z,21.27
2019-03-26T09:17:20.683Z,19.50
2019-03-26T09:19:48.911Z,17.57
2019-03-26T09:22:17.151Z,19.05
2019-03-26T09:24:45.407Z,20.20
2019-03-26T09:27:13.661Z,19.75
2019-03-26T09:29:41.902Z,20.97
2019-03-26T09:32:10.161Z,17.07
2019-03-26T09:34:38.408Z,17.42
2019-03-26T09:37:06.640Z,17.55
2019-03-26T09:39:38.122Z,19.15
2019-03-26T09:42:04.874Z,17.07
2019-03-26T09:44:52.534Z,17.45
2019-03-26T09:47:20.786Z,19.60
2019-03-26T09:49:49.029Z,17.15
2019-03-26T09:52:17.272Z,17.57
2019-03-26T09:54:45.509Z,15.50
2019-03-26T09:57:13.765Z,20.90
2019-03-26T09:59:42.007Z,16.15
2019-03-26T10:02:10.239Z,13.25
2019-03-26T10:04:38.493Z,13.60
2019-03-26T10:07:06.711Z,14.78
2019-03-26T10:09:34.974Z,13.83
2019-03-26T10:12:03.241Z,16.77
2019-03-26T10:14:31.478Z,15.53
2019-03-26T10:16:59.714Z,13.98
2019-03-26T10:19:27.963Z,19.00
2019-03-26T10:21:56.250Z,17.05
2019-03-26T10:24:24.493Z,16.45
2019-03-26T10:26:52.782Z,15.80
2019-03-26T10:29:29.946Z,15.48
2019-03-26T10:32:10.428Z,20.85
2019-03-26T10:34:38.698Z,18.20
2019-03-26T10:37:06.940Z,13.05
2019-03-26T10:39:35.162Z,18.07
2019-03-26T10:42:03.405Z,16.67
2019-03-26T10:44:31.665Z,19.25
2019-03-26T10:46:59.898Z,13.75
2019-03-26T10:49:28.129Z,13.35
2019-03-26T10:51:56.378Z,12.50
2019-03-26T10:54:24.623Z,16.85
2019-03-26T10:56:52.852Z,12.25
2019-03-26T10:59:21.080Z,13.28
2019-03-26T11:01:49.358Z,11.10
2019-03-26T11:04:17.612Z,12.35
2019-03-26T11:06:45.836Z,11.18
2019-03-26T11:09:23.253Z,9.55
2019-03-26T11:11:44.082Z,14.70
2019-03-26T11:14:12.361Z,11.45
2019-03-26T11:16:40.630Z,10.20
2019-03-26T11:19:08.870Z,12.82
2019-03-26T11:21:37.105Z,13.80
2019-03-26T11:24:05.350Z,9.48
2019-03-26T11:26:33.587Z,10.00
2019-03-26T11:29:01.849Z,11.00
2019-03-26T11:31:30.335Z,12.98
2019-03-26T11:33:58.716Z,13.28
2019-03-26T11:36:26.941Z,12.45
2019-03-26T11:38:55.265Z,10.45
2019-03-26T11:41:23.486Z,9.58
2019-03-26T11:43:51.745Z,9.53
2019-03-26T11:46:19.991Z,10.40
2019-03-26T11:48:48.230Z,7.47
2019-03-26T11:51:16.447Z,10.93
2019-03-26T11:53:44.699Z,10.70
2019-03-26T11:56:12.947Z,14.98
2019-03-26T11:58:41.170Z,13.45
2019-03-26T12:01:09.411Z,11.50
2019-03-26T12:03:37.676Z,11.78
2019-03-26T12:06:05.919Z,10.53
2019-03-26T12:08:34.151Z,10.48
2019-03-26T12:11:02.388Z,9.85
2019-03-26T12:13:30.623Z,11.43
2019-03-26T12:15:58.856Z,14.43
2019-03-26T12:18:27.084Z,16.27
2019-03-26T12:20:55.304Z,16.70
2019-03-26T12:23:23.573Z,10.48
2019-03-26T12:25:51.814Z,8.83
2019-03-26T12:28:20.066Z,14.23
2019-03-26T12:30:48.290Z,12.80
2019-03-26T12:33:16.531Z,9.23
2019-03-26T12:35:44.801Z,8.48
2019-03-26T12:38:17.293Z,8.63
2019-03-26T12:40:45.539Z,8.55
2019-03-26T12:43:13.928Z,8.20
2019-03-26T12:45:42.693Z,8.25
2019-03-26T12:48:10.930Z,6.47
2019-03-26T12:50:39.183Z,4.78
2019-03-26T12:53:07.436Z,6.95
2019-03-26T12:55:35.664Z,6.78
2019-03-26T12:58:03.938Z,7.00
2019-03-26T13:00:32.358Z,7.92
2019-03-26T13:03:01.267Z,8.53
2019-03-26T13:05:29.575Z,7.95
2019-03-26T13:07:57.821Z,5.62
2019-03-26T13:10:26.045Z,7.50
2019-03-26T13:12:54.305Z,7.62
2019-03-26T13:15:22.552Z,7.45
2019-03-26T13:17:50.770Z,7.15
2019-03-26T13:20:18.991Z,6.42
2019-03-26T13:22:47.246Z,4.20
2019-03-26T13:25:15.468Z,6.17
2019-03-26T13:27:43.788Z,5.50
2019-03-26T13:30:12.019Z,10.98
2019-03-26T13:32:40.270Z,10.40
2019-03-26T13:35:08.494Z,5.62
2019-03-26T13:37:36.724Z,7.25
2019-03-26T13:40:05.845Z,8.50
2019-03-26T13:42:34.089Z,4.05
2019-03-26T13:45:02.330Z,8.93
2019-03-26T13:47:30.572Z,6.33
2019-03-26T13:49:58.783Z,5.80
2019-03-26T13:52:27.077Z,5.85
2019-03-26T13:55:14.732Z,5.75
2019-03-26T13:57:42.979Z,6.17
2019-03-26T14:00:11.293Z,9.73
2019-03-26T14:02:39.519Z,6.60
2019-03-26T14:05:27.170Z,7.83
2019-03-26T14:07:55.402Z,9.63
2019-03-26T14:10:23.640Z,9.65
2019-03-26T14:12:51.872Z,8.83
2019-03-26T14:15:20.113Z,10.35
2019-03-26T14:17:48.358Z,8.40
2019-03-26T14:20:16.623Z,9.65
2019-03-26T14:22:44.826Z,7.30
2019-03-26T14:25:13.099Z,5.90
2019-03-26T14:27:41.370Z,9.35
2019-03-26T14:30:10.251Z,9.45
2019-03-26T14:32:38.506Z,7.50
2019-03-26T14:35:06.718Z,5.72
2019-03-26T14:37:34.936Z,8.90
2019-03-26T14:40:04.262Z,7.40
2019-03-26T14:42:32.505Z,11.00
2019-03-26T14:45:00.853Z,7.58
2019-03-26T14:47:29.075Z,10.00
2019-03-26T14:49:57.312Z,13.55
2019-03-26T14:52:25.560Z,11.57
2019-03-26T14:54:53.803Z,7.85
2019-03-26T14:57:22.042Z,8.40
2019-03-26T14:59:50.322Z,7.42
2019-03-26T15:02:18.543Z,10.63
2019-03-26T15:04:46.789Z,10.53
2019-03-26T15:07:15.039Z,13.05
2019-03-26T15:09:43.268Z,14.95
2019-03-26T15:12:11.502Z,13.53
2019-03-26T15:14:39.778Z,9.98
2019-03-26T15:17:07.990Z,8.98
2019-03-26T15:19:36.218Z,8.70
2019-03-26T15:22:04.484Z,13.83
2019-03-26T15:24:32.713Z,10.60
2019-03-26T15:27:01.013Z,14.25
2019-03-26T15:29:29.263Z,15.43
2019-03-26T15:31:57.536Z,10.18
2019-03-26T15:34:35.605Z,16.52
2019-03-26T15:36:55.736Z,12.93
2019-03-26T15:39:23.974Z,13.35
2019-03-26T15:41:52.236Z,13.22
2019-03-26T15:44:20.505Z,9.18
2019-03-26T15:46:48.731Z,13.65
2019-03-26T15:49:16.976Z,11.40
2019-03-26T15:51:45.210Z,15.40
2019-03-26T15:54:13.464Z,15.48
2019-03-26T15:56:41.737Z,14.90
2019-03-26T15:59:09.982Z,19.85
2019-03-26T16:01:38.279Z,22.75
2019-03-26T16:04:06.553Z,18.20
2019-03-26T16:06:34.778Z,21.97
2019-03-26T16:09:03.880Z,19.92
2019-03-26T16:11:36.162Z,23.83
2019-03-26T16:14:02.193Z,20.05
2019-03-26T16:16:30.412Z,18.23
2019-03-26T16:18:58.756Z,23.40
2019-03-26T16:21:26.983Z,23.02
2019-03-26T16:23:55.290Z,20.17
2019-03-26T16:26:23.529Z,22.65
2019-03-26T16:28:51.789Z,26.40
2019-03-26T16:31:20.098Z,21.45
2019-03-26T16:33:48.349Z,21.80
2019-03-26T16:36:16.586Z,21.73
2019-03-26T16:38:44.847Z,23.62
2019-03-26T16:41:13.132Z,20.75
2019-03-26T16:43:41.393Z,21.70
2019-03-26T16:46:09.733Z,22.30
2019-03-26T16:48:37.968Z,24.23
2019-03-26T16:51:06.235Z,22.82
2019-03-26T16:53:34.464Z,20.17
2019-03-26T16:56:02.762Z,20.57
2019-03-26T16:58:31.004Z,18.80
2019-03-26T17:00:59.262Z,24.57
2019-03-26T17:03:31.592Z,23.07
2019-03-26T17:05:57.545Z,29.63
2019-03-26T17:08:25.765Z,21.45
2019-03-26T17:10:54.008Z,26.90
2019-03-26T17:13:22.259Z,18.12
2019-03-26T17:15:50.492Z,23.52
2019-03-26T17:18:18.720Z,29.82
2019-03-26T17:20:46.968Z,21.93
2019-03-26T17:23:15.215Z,20.80
2019-03-26T17:25:43.450Z,23.92
2019-03-26T17:28:11.722Z,23.95
2019-03-26T17:30:39.977Z,23.10
2019-03-26T17:33:08.200Z,26.27
2019-03-26T17:35:36.446Z,20.00
2019-03-26T17:38:04.676Z,24.55
2019-03-26T17:40:32.918Z,21.60
2019-03-26T17:43:01.158Z,19.30
2019-03-26T17:45:29.440Z,22.22
2019-03-26T17:47:57.675Z,23.05
2019-03-26T17:50:25.915Z,20.00
2019-03-26T17:52:54.262Z,20.00
2019-03-26T17:55:22.520Z,14.35
2019-03-26T17:57:50.765Z,20.20
2019-03-26T18:00:21.866Z,18.00
2019-03-26T18:02:50.101Z,14.65
2019-03-26T18:05:28.229Z,15.08
2019-03-26T18:07:56.748Z,15.03
2019-03-26T18:10:24.993Z,18.95
2019-03-26T18:12:53.344Z,20.95
2019-03-26T18:15:21.583Z,15.10
2019-03-26T18:17:49.808Z,18.90
2019-03-26T18:20:31.543Z,20.43
2019-03-26T18:22:48.014Z,18.20
2019-03-26T18:25:16.237Z,14.03
2019-03-26T18:27:44.562Z,17.92
2019-03-26T18:30:12.792Z,18.55
2019-03-26T18:32:41.041Z,14.93
2019-03-26T18:35:09.258Z,21.75
2019-03-26T18:37:38.337Z,16.10
2019-03-26T18:40:27.629Z,20.48
2019-03-26T18:42:55.949Z,19.92
2019-03-26T18:45:30.320Z,20.80
2019-03-26T18:47:58.818Z,23.30
2019-03-26T18:50:27.044Z,24.12
2019-03-26T18:52:55.309Z,19.75
2019-03-26T18:55:25.255Z,22.05
2019-03-26T18:57:53.675Z,20.82
2019-03-26T19:00:35.542Z,23.60
2019-03-26T19:03:03.851Z,24.90
2019-03-26T19:05:32.078Z,21.95
2019-03-26T19:08:00.552Z,18.05
2019-03-26T19:10:33.283Z,20.25
2019-03-26T19:13:01.524Z,21.68
2019-03-26T19:15:29.794Z,21.70
2019-03-26T19:17:58.088Z,21.73
2019-03-26T19:20:26.362Z,25.20
2019-03-26T19:22:54.581Z,23.30
2019-03-26T19:25:22.874Z,22.13
2019-03-26T19:27:51.146Z,25.62
2019-03-26T19:30:19.378Z,23.10
2019-03-26T19:32:47.636Z,24.02
2019-03-26T19:35:16.011Z,17.35
2019-03-26T19:37:44.284Z,24.25
2019-03-26T19:40:12.721Z,22.40
2019-03-26T19:42:41.016Z,23.25
2019-03-26T19:45:09.250Z,26.82
2019-03-26T19:47:37.562Z,22.17
2019-03-26T19:50:07.736Z,21.33
2019-03-26T19:52:36.153Z,24.80
2019-03-26T19:55:06.429Z,16.95
2019-03-26T19:57:34.694Z,19.48
2019-03-26T20:00:03.192Z,18.05
2019-03-26T20:02:31.410Z,24.12
2019-03-26T20:04:59.669Z,21.35
2019-03-26T20:07:27.902Z,23.10
2019-03-26T20:09:56.161Z,24.92
2019-03-26T20:12:24.393Z,23.62
2019-03-26T20:14:52.670Z,18.32
2019-03-26T20:17:20.907Z,21.82
2019-03-26T20:19:49.152Z,24.07
2019-03-26T20:22:17.376Z,22.82
2019-03-26T20:24:45.636Z,20.37
2019-03-26T20:27:13.902Z,22.90
2019-03-26T20:29:42.130Z,21.10
2019-03-26T20:32:10.378Z,19.42
2019-03-26T20:34:38.630Z,20.52
2019-03-26T20:37:06.848Z,27.58
2019-03-26T20:39:35.117Z,21.23
2019-03-26T20:42:03.349Z,23.55
2019-03-26T20:44:31.602Z,27.00
2019-03-26T20:46:59.903Z,29.90
2019-03-26T20:49:28.146Z,40.30
2019-03-26T20:51:56.472Z,53.28
2019-03-26T20:54:24.700Z,77.47
2019-03-26T20:56:52.933Z,54.70
2019-03-26T20:59:21.176Z,51.05
2019-03-26T21:01:49.399Z,43.70
2019-03-26T21:04:17.663Z,44.20
2019-03-26T21:06:45.889Z,27.50
2019-03-26T21:09:14.153Z,20.85
2019-03-26T21:11:42.382Z,20.80
2019-03-26T21:14:10.621Z,25.77
2019-03-26T21:16:38.946Z,27.35
2019-03-26T21:19:07.218Z,25.12
2019-03-26T21:21:35.458Z,20.90
2019-03-26T21:24:03.688Z,22.00
2019-03-26T21:26:31.914Z,20.55
2019-03-26T21:29:00.145Z,25.88
2019-03-26T21:31:28.394Z,24.87
2019-03-26T21:33:56.651Z,27.50
2019-03-26T21:36:24.870Z,26.75
2019-03-26T21:38:53.127Z,26.23
2019-03-26T21:41:21.378Z,28.55
2019-03-26T21:43:49.635Z,27.82
2019-03-26T21:46:17.891Z,28.12
2019-03-26T21:48:46.120Z,25.52
2019-03-26T21:51:14.392Z,24.55
2019-03-26T21:53:42.641Z,29.45
2019-03-26T21:56:10.944Z,24.27
2019-03-26T21:58:39.211Z,32.78
2019-03-26T22:01:07.744Z,25.32
2019-03-26T22:03:35.968Z,25.57
2019-03-26T22:06:04.290Z,31.37
2019-03-26T22:08:32.545Z,25.45
2019-03-26T22:11:00.779Z,21.65
2019-03-26T22:13:29.027Z,23.95
2019-03-26T22:15:57.251Z,26.07
2019-03-26T22:18:25.517Z,23.62
2019-03-26T22:20:53.749Z,29.72
2019-03-26T22:23:22.013Z,24.82
2019-03-26T22:25:50.223Z,24.10
2019-03-26T22:28:18.473Z,24.15
2019-03-26T22:30:46.737Z,30.50
2019-03-26T22:33:14.972Z,24.67
2019-03-26T22:35:43.224Z,32.75
2019-03-26T22:38:11.455Z,23.32
2019-03-26T22:40:39.687Z,28.05
2019-03-26T22:43:07.923Z,31.20
2019-03-26T22:45:36.160Z,30.52
2019-03-26T22:48:04.390Z,28.00
2019-03-26T22:50:32.625Z,23.05
2019-03-26T22:53:00.952Z,33.48
2019-03-26T22:55:29.190Z,27.58
2019-03-26T22:57:57.435Z,32.67
2019-03-26T23:00:25.661Z,29.72
2019-03-26T23:02:53.926Z,24.80
2019-03-26T23:05:22.172Z,26.70
2019-03-26T23:07:50.417Z,25.45
2019-03-26T23:10:18.652Z,28.65
2019-03-26T23:12:46.916Z,30.48
2019-03-26T23:15:23.381Z,21.55
2019-03-26T23:17:51.633Z,30.70
2019-03-26T23:20:19.867Z,23.57
2019-03-26T23:22:48.125Z,30.43
2019-03-26T23:25:16.399Z,27.77
2019-03-26T23:27:44.620Z,32.10
2019-03-26T23:30:12.938Z,27.17
2019-03-26T23:32:41.188Z,27.35
2019-03-26T23:35:09.426Z,24.98
2019-03-26T23:37:37.664Z,28.20
2019-03-26T23:40:05.910Z,28.02
2019-03-26T23:42:34.140Z,32.90
2019-03-26T23:45:02.422Z,28.35
2019-03-26T23:47:30.670Z,23.83
2019-03-26T23:49:58.895Z,27.30
2019-03-26T23:52:27.149Z,25.62
2019-03-26T23:54:55.382Z,24.60
2019-03-26T23:57:23.642Z,30.43
2019-03-26T23:59:51.898Z,30.37
